Time;durP1;ratioP1;P1;durP2;ratioP2;P2;SDS_P1;SDS_P2;PMS_P1;PMS_P2;Temp;Humidity;BMP_temperature;BMP_pressure;BME280_temperature;BME280_humidity;BME280_pressure;Samples;Min_cycle;Max_cycle;Signal;HPM_P1;HPM_P2
2023/12/04 00:02:01;;;;;;;1.73;1.63;;;1.10;99.90;;;;;;5034075;28;20654;-90
2023/12/04 00:04:27;;;;;;;4.03;3.40;;;1.30;99.90;;;;;;5018353;28;20230;-89
2023/12/04 00:06:56;;;;;;;2.87;2.67;;;1.30;99.90;;;;;;5034529;28;20639;-91
2023/12/04 00:09:24;;;;;;;2.40;2.30;;;1.30;99.90;;;;;;5034397;28;20206;-90
2023/12/04 00:11:52;;;;;;;1.17;1.13;;;1.10;99.90;;;;;;5034389;28;20257;-91
2023/12/04 00:14:18;;;;;;;9.80;2.50;;;1.00;99.90;;;;;;5035785;28;20228;-91
2023/12/04 00:16:43;;;;;;;5.60;5.20;;;1.10;99.90;;;;;;5001816;28;20175;-91
2023/12/04 00:19:09;;;;;;;3.30;3.00;;;1.10;99.90;;;;;;5034296;28;20229;-91
2023/12/04 00:21:35;;;;;;;2.13;2.03;;;1.10;99.90;;;;;;5034254;28;20175;-91
2023/12/04 00:24:01;;;;;;;0.70;0.53;;;1.30;99.90;;;;;;5034250;28;20178;-90
2023/12/04 00:26:29;;;;;;;1.10;1.03;;;1.20;99.90;;;;;;5035177;28;20187;-91
2023/12/04 00:28:55;;;;;;;0.57;0.57;;;1.30;99.90;;;;;;5034728;28;20272;-91
2023/12/04 00:31:21;;;;;;;6.07;2.57;;;1.40;99.90;;;;;;5035387;28;20269;-90
2023/12/04 00:33:47;;;;;;;1.30;1.30;;;1.10;99.90;;;;;;5018313;28;20243;-91
2023/12/04 00:36:13;;;;;;;0.63;0.63;;;1.00;99.90;;;;;;5033688;28;20657;-91
2023/12/04 00:38:39;;;;;;;0.77;0.77;;;1.20;99.90;;;;;;5033592;28;20175;-91
2023/12/04 00:41:08;;;;;;;0.67;0.67;;;1.20;99.90;;;;;;5034605;28;20179;-91
2023/12/04 00:43:34;;;;;;;4.17;2.43;;;1.00;99.90;;;;;;5018095;28;20669;-91
2023/12/04 00:46:00;;;;;;;3.47;1.77;;;1.20;99.90;;;;;;5033677;28;20187;-92
2023/12/04 00:48:26;;;;;;;0.80;0.80;;;1.40;99.90;;;;;;5034727;28;20210;-92
2023/12/04 00:50:54;;;;;;;3.17;2.97;;;1.30;99.90;;;;;;5017258;28;20205;-91
2023/12/04 00:53:19;;;;;;;2.20;2.10;;;1.40;99.90;;;;;;5017752;28;20175;-91
2023/12/04 00:55:45;;;;;;;0.70;0.70;;;1.30;99.90;;;;;;5033667;28;20269;-91
2023/12/04 00:58:12;;;;;;;0.40;0.40;;;1.30;99.90;;;;;;5034703;28;20183;-91
2023/12/04 01:00:41;;;;;;;1.43;1.13;;;1.00;99.90;;;;;;5016443;28;20578;-91
2023/12/04 01:03:06;;;;;;;1.73;1.67;;;1.30;99.90;;;;;;5017211;28;20510;-92
2023/12/04 01:05:35;;;;;;;1.40;1.40;;;1.10;99.90;;;;;;5033152;28;20229;-92
2023/12/04 01:08:03;;;;;;;2.70;2.60;;;1.40;99.90;;;;;;5033080;28;20535;-92
2023/12/04 01:10:29;;;;;;;2.00;1.90;;;1.30;99.90;;;;;;5033623;28;20206;-92
2023/12/04 01:12:54;;;;;;;0.60;0.60;;;1.10;99.90;;;;;;5033974;28;20167;-91
2023/12/04 01:15:20;;;;;;;2.60;1.87;;;1.30;99.90;;;;;;5033395;28;20190;-91
2023/12/04 01:17:46;;;;;;;2.20;1.43;;;1.40;99.90;;;;;;5016854;28;20186;-91
2023/12/04 01:20:13;;;;;;;2.70;2.13;;;1.30;99.90;;;;;;5034255;28;20233;-91
2023/12/04 01:22:38;;;;;;;3.10;1.57;;;1.10;99.90;;;;;;5033696;28;20174;-92
2023/12/04 01:25:15;;;;;;;0.90;0.90;;;1.20;99.90;;;;;;5033289;28;20238;-92
2023/12/04 01:27:40;;;;;;;2.07;1.90;;;1.10;99.90;;;;;;5033174;28;20182;-92
2023/12/04 01:30:09;;;;;;;0.93;0.93;;;1.10;99.90;;;;;;5016425;28;20202;-91
2023/12/04 01:32:35;;;;;;;1.20;1.20;;;1.40;99.90;;;;;;5034133;28;20218;-92
2023/12/04 01:35:02;;;;;;;2.00;1.80;;;1.00;99.90;;;;;;5017064;28;20555;-92
2023/12/04 01:37:28;;;;;;;1.97;1.77;;;1.10;99.90;;;;;;5033071;28;20186;-92
2023/12/04 01:39:56;;;;;;;1.67;1.57;;;1.40;99.90;;;;;;5032750;28;20179;-92
2023/12/04 01:42:22;;;;;;;3.13;2.37;;;1.20;99.90;;;;;;5032922;28;20183;-92
2023/12/04 01:44:48;;;;;;;0.57;0.57;;;1.20;99.90;;;;;;5034147;28;20236;-92
2023/12/04 01:47:14;;;;;;;0.83;0.83;;;1.50;99.90;;;;;;5032887;28;20201;-92
2023/12/04 01:49:40;;;;;;;1.90;1.80;;;1.20;99.90;;;;;;5033847;28;20202;-93
2023/12/04 01:52:06;;;;;;;2.87;2.47;;;1.20;99.90;;;;;;5032804;28;20236;-93
2023/12/04 01:54:32;;;;;;;2.33;2.13;;;1.50;99.90;;;;;;5032954;28;20177;-92
2023/12/04 01:56:58;;;;;;;1.07;1.07;;;1.50;99.90;;;;;;5016210;28;20179;-92
2023/12/04 01:59:25;;;;;;;2.00;1.90;;;1.20;99.90;;;;;;5033298;28;20607;-92
2023/12/04 02:01:52;;;;;;;1.67;1.57;;;1.50;99.90;;;;;;5016297;28;20621;-92
2023/12/04 02:04:20;;;;;;;1.00;1.00;;;1.30;99.90;;;;;;5032899;28;20405;-93
2023/12/04 02:06:49;;;;;;;3.53;2.33;;;1.30;99.90;;;;;;5017286;28;20229;-92
2023/12/04 02:09:16;;;;;;;1.20;1.17;;;1.40;99.90;;;;;;5016201;28;20214;-93
2023/12/04 02:11:41;;;;;;;2.17;1.87;;;1.50;99.90;;;;;;5033938;28;20193;-93
2023/12/04 02:14:08;;;;;;;1.97;1.17;;;1.20;99.90;;;;;;5033556;28;20497;-92
2023/12/04 02:16:39;;;;;;;1.63;1.57;;;1.50;99.90;;;;;;5015842;28;20183;-93
2023/12/04 02:19:08;;;;;;;1.97;1.03;;;1.50;99.90;;;;;;5033416;28;20167;-93
2023/12/04 02:21:34;;;;;;;4.43;2.33;;;1.60;99.90;;;;;;5016363;28;20171;-93
2023/12/04 02:24:00;;;;;;;1.70;1.60;;;1.50;99.90;;;;;;5033770;28;20609;-93
2023/12/04 02:26:32;;;;;;;2.07;0.60;;;1.60;99.90;;;;;;5015968;28;20682;-93
2023/12/04 02:29:10;;;;;;;3.00;1.97;;;1.60;99.90;;;;;;5015829;28;20205;-93
2023/12/04 02:31:38;;;;;;;3.10;2.93;;;1.50;99.90;;;;;;5033533;28;20183;-93
2023/12/04 02:34:07;;;;;;;0.50;0.50;;;1.40;99.90;;;;;;5016202;28;20213;-93
2023/12/04 02:36:35;;;;;;;0.30;0.30;;;1.40;99.90;;;;;;5015579;28;20179;-93
2023/12/04 02:39:01;;;;;;;5.70;3.47;;;1.60;99.90;;;;;;5015880;28;20266;-92
2023/12/04 02:41:27;;;;;;;4.53;1.87;;;1.60;99.90;;;;;;5033988;28;20179;-93
2023/12/04 02:43:53;;;;;;;0.60;0.60;;;1.50;99.90;;;;;;5002230;28;20179;-93
2023/12/04 02:46:19;;;;;;;1.73;1.63;;;1.60;99.90;;;;;;5003550;28;20577;-92
2023/12/04 02:48:51;;;;;;;1.30;1.20;;;1.40;99.90;;;;;;4986683;28;20573;-93
2023/12/04 02:51:16;;;;;;;1.50;1.50;;;1.70;99.90;;;;;;5020372;28;20209;-92
2023/12/04 02:53:42;;;;;;;1.70;1.70;;;1.40;99.90;;;;;;5019503;28;20596;-93
2023/12/04 02:56:09;;;;;;;2.50;2.10;;;1.50;99.90;;;;;;5003052;28;20635;-93
2023/12/04 02:58:34;;;;;;;2.17;2.07;;;1.60;99.90;;;;;;5003722;28;20229;-93
2023/12/04 03:01:00;;;;;;;2.87;2.63;;;1.40;99.90;;;;;;5036456;28;20179;-93
2023/12/04 03:03:26;;;;;;;7.83;3.30;;;1.40;99.90;;;;;;5019028;28;20214;-94
2023/12/04 03:05:52;;;;;;;1.27;1.17;;;1.70;99.90;;;;;;5030902;28;20697;-93
2023/12/04 03:08:17;;;;;;;3.10;2.90;;;1.50;99.90;;;;;;5019173;28;20264;-93
2023/12/04 03:10:43;;;;;;;1.80;1.77;;;1.60;99.90;;;;;;5037119;28;20623;-92
2023/12/04 03:13:09;;;;;;;0.70;0.70;;;1.50;99.90;;;;;;5018996;28;20178;-93
2023/12/04 03:15:35;;;;;;;0.67;0.67;;;1.40;99.90;;;;;;5036037;28;20611;-93
2023/12/04 03:18:01;;;;;;;1.60;1.60;;;1.70;99.90;;;;;;5035453;28;20229;-92
2023/12/04 03:20:27;;;;;;;4.33;2.00;;;1.50;99.90;;;;;;5035220;28;20183;-92
2023/12/04 03:22:53;;;;;;;4.63;1.70;;;1.50;99.90;;;;;;5034864;28;20198;-93
2023/12/04 03:25:18;;;;;;;1.73;1.63;;;1.40;99.90;;;;;;5036170;28;20178;-92
2023/12/04 03:27:44;;;;;;;1.77;1.43;;;1.60;99.90;;;;;;5018887;28;20179;-91
2023/12/04 03:30:12;;;;;;;1.80;1.67;;;1.70;99.90;;;;;;5018843;28;20294;-92
2023/12/04 03:32:38;;;;;;;3.03;1.57;;;1.60;99.90;;;;;;5035101;28;20274;-92
2023/12/04 03:35:04;;;;;;;2.37;1.30;;;1.70;99.90;;;;;;5034699;28;20254;-91
2023/12/04 03:37:30;;;;;;;3.30;0.87;;;1.70;99.90;;;;;;5034548;28;20182;-93
2023/12/04 03:39:56;;;;;;;4.57;4.17;;;1.70;99.90;;;;;;5034800;28;20217;-93
2023/12/04 03:42:22;;;;;;;5.63;5.03;;;1.70;99.90;;;;;;5034592;28;20182;-93
2023/12/04 03:44:47;;;;;;;2.67;2.57;;;1.60;99.90;;;;;;5034854;28;20266;-94
2023/12/04 03:47:16;;;;;;;1.17;1.10;;;1.60;99.90;;;;;;5034764;28;20214;-93
2023/12/04 03:49:42;;;;;;;1.23;1.10;;;1.70;99.90;;;;;;5034618;28;20206;-93
2023/12/04 03:52:08;;;;;;;2.10;1.90;;;1.70;99.90;;;;;;5034331;28;20182;-93
2023/12/04 03:54:33;;;;;;;1.20;1.10;;;1.50;99.90;;;;;;5034731;28;20178;-94
2023/12/04 03:57:02;;;;;;;0.80;0.80;;;1.70;99.90;;;;;;5034553;28;20178;-94
2023/12/04 03:59:29;;;;;;;4.53;4.23;;;1.60;99.90;;;;;;5034585;28;20190;-94
2023/12/04 04:02:01;;;;;;;1.30;1.20;;;1.50;99.90;;;;;;5035777;28;20631;-92
2023/12/04 04:04:29;;;;;;;1.97;1.87;;;1.50;99.90;;;;;;5034280;28;20732;-94
2023/12/04 04:06:55;;;;;;;2.43;2.33;;;1.50;99.90;;;;;;5034304;28;20543;-94
2023/12/04 04:09:24;;;;;;;0.30;0.30;;;1.70;99.90;;;;;;5034552;28;20277;-94
2023/12/04 04:11:49;;;;;;;2.80;2.63;;;1.50;99.90;;;;;;5034364;28;20217;-93
2023/12/04 04:14:15;;;;;;;4.30;2.57;;;1.70;99.90;;;;;;5034721;28;20214;-94
2023/12/04 04:16:41;;;;;;;1.50;1.40;;;1.70;99.90;;;;;;5034460;28;20572;-94
2023/12/04 04:19:10;;;;;;;0.90;0.90;;;1.50;99.90;;;;;;5034677;28;20187;-94
2023/12/04 04:21:40;;;;;;;2.27;1.80;;;1.60;99.90;;;;;;5034294;28;20175;-93
2023/12/04 04:24:09;;;;;;;1.27;1.27;;;1.70;99.90;;;;;;5034226;28;20178;-94
2023/12/04 04:26:34;;;;;;;1.70;1.60;;;1.60;99.90;;;;;;5034247;28;20175;-93
2023/12/04 04:29:03;;;;;;;2.63;2.43;;;1.60;99.90;;;;;;5034566;28;20202;-94
2023/12/04 04:31:29;;;;;;;6.43;6.03;;;1.70;99.90;;;;;;5034296;28;20646;-94
2023/12/04 04:33:57;;;;;;;2.33;2.23;;;1.70;99.90;;;;;;5018216;28;20592;-93
2023/12/04 04:36:23;;;;;;;2.23;1.37;;;1.60;99.90;;;;;;5033986;28;20186;-93
2023/12/04 04:38:49;;;;;;;2.57;2.40;;;1.70;99.90;;;;;;5034424;28;20179;-93
2023/12/04 04:41:15;;;;;;;2.77;2.47;;;1.60;99.90;;;;;;5017496;28;20183;-92
2023/12/04 04:43:42;;;;;;;2.93;2.73;;;1.50;99.90;;;;;;5034863;28;20214;-94
2023/12/04 04:46:07;;;;;;;0.87;0.87;;;1.50;99.90;;;;;;5017052;28;20179;-93
2023/12/04 04:48:36;;;;;;;2.40;1.83;;;1.50;99.90;;;;;;5034716;28;20289;-93
2023/12/04 04:51:03;;;;;;;2.13;1.50;;;1.60;99.90;;;;;;5034219;28;20179;-93
2023/12/04 04:53:32;;;;;;;3.77;1.63;;;1.50;99.90;;;;;;5033710;28;20175;-93
2023/12/04 04:55:58;;;;;;;3.33;1.23;;;1.50;99.90;;;;;;5033820;28;20171;-92
2023/12/04 04:58:24;;;;;;;2.93;2.80;;;1.50;99.90;;;;;;5017103;28;20647;-93
2023/12/04 05:00:49;;;;;;;0.67;0.67;;;1.50;99.90;;;;;;5033489;28;20232;-93
2023/12/04 05:03:15;;;;;;;1.43;1.43;;;1.70;99.90;;;;;;5034099;28;20387;-92
2023/12/04 05:05:41;;;;;;;1.73;1.60;;;1.60;99.90;;;;;;5032614;28;20293;-94
2023/12/04 05:08:07;;;;;;;1.43;1.33;;;1.60;99.90;;;;;;5033129;28;20191;-92
2023/12/04 05:10:42;;;;;;;0.53;0.53;;;1.70;99.90;;;;;;5016537;28;20187;-93
2023/12/04 05:13:11;;;;;;;2.70;2.60;;;1.70;99.90;;;;;;5033921;28;20193;-92
2023/12/04 05:15:36;;;;;;;3.53;2.73;;;1.60;99.90;;;;;;5033217;28;20182;-93
2023/12/04 05:18:02;;;;;;;2.40;2.20;;;1.60;99.90;;;;;;5033413;28;20175;-93
2023/12/04 05:20:28;;;;;;;2.13;1.80;;;1.70;99.90;;;;;;5033315;28;20179;-93
2023/12/04 05:22:54;;;;;;;2.30;2.20;;;1.80;99.90;;;;;;5032199;28;20571;-90
2023/12/04 05:25:22;;;;;;;2.67;2.43;;;1.80;99.90;;;;;;5033108;28;20700;-93
2023/12/04 05:27:48;;;;;;;3.87;2.53;;;1.80;99.90;;;;;;5033063;28;20189;-93
2023/12/04 05:30:14;;;;;;;1.23;1.13;;;1.70;99.90;;;;;;5033003;28;20289;-93
2023/12/04 05:32:45;;;;;;;2.43;0.97;;;1.90;99.90;;;;;;5033323;28;20183;-93
2023/12/04 05:35:11;;;;;;;0.83;0.77;;;1.70;99.90;;;;;;5033280;28;20243;-93
2023/12/04 05:37:39;;;;;;;1.97;1.87;;;1.70;99.90;;;;;;5016932;28;20232;-94
2023/12/04 05:40:06;;;;;;;2.27;2.10;;;1.90;99.90;;;;;;5034018;28;20514;-93
2023/12/04 05:42:32;;;;;;;0.83;0.83;;;1.80;99.90;;;;;;5016643;28;20267;-94
2023/12/04 05:45:00;;;;;;;3.67;3.30;;;1.80;99.90;;;;;;5032668;28;20206;-94
2023/12/04 05:47:26;;;;;;;1.23;1.23;;;1.80;99.90;;;;;;5033477;28;20194;-94
2023/12/04 05:50:02;;;;;;;4.40;4.00;;;1.80;99.90;;;;;;5032652;28;20203;-94
2023/12/04 05:52:30;;;;;;;0.87;0.80;;;1.80;99.90;;;;;;5017411;28;20221;-93
2023/12/04 05:54:56;;;;;;;2.17;2.07;;;1.90;99.90;;;;;;5032699;28;20187;-94
2023/12/04 05:57:22;;;;;;;2.23;2.13;;;1.90;99.90;;;;;;5033573;28;20190;-93
2023/12/04 05:59:48;;;;;;;47.50;4.27;;;1.90;99.90;;;;;;5016057;28;20194;-92
2023/12/04 06:02:15;;;;;;;3.70;2.53;;;1.90;99.90;;;;;;5016137;28;20182;-93
2023/12/04 06:04:41;;;;;;;2.30;1.40;;;1.90;99.90;;;;;;5032612;28;20222;-92
2023/12/04 06:07:07;;;;;;;3.80;2.80;;;2.00;99.90;;;;;;4999934;28;20654;-93
2023/12/04 06:09:36;;;;;;;2.00;1.90;;;1.80;99.90;;;;;;5032920;28;20669;-93
2023/12/04 06:12:07;;;;;;;1.47;1.40;;;1.90;99.90;;;;;;5032341;28;20697;-93
2023/12/04 06:14:34;;;;;;;1.63;1.53;;;1.90;99.90;;;;;;5032564;28;20175;-94
2023/12/04 06:17:01;;;;;;;2.27;2.17;;;2.00;99.90;;;;;;5034919;28;20175;-93
2023/12/04 06:19:30;;;;;;;1.37;1.27;;;1.90;99.90;;;;;;5036769;28;20219;-92
2023/12/04 06:21:59;;;;;;;0.67;0.67;;;1.90;99.90;;;;;;5036820;28;20631;-93
2023/12/04 06:24:25;;;;;;;0.63;0.63;;;2.00;99.90;;;;;;5037239;28;20174;-94
2023/12/04 06:26:52;;;;;;;2.87;2.77;;;1.90;99.90;;;;;;5036056;28;20175;-94
2023/12/04 06:29:19;;;;;;;3.77;2.13;;;1.90;99.90;;;;;;5020035;28;20198;-93
2023/12/04 06:31:48;;;;;;;0.53;0.53;;;2.00;99.90;;;;;;5037413;28;20626;-91
2023/12/04 06:34:14;;;;;;;1.50;1.20;;;1.90;99.90;;;;;;5036184;28;20271;-92
2023/12/04 06:36:40;;;;;;;3.30;2.53;;;2.00;99.90;;;;;;5020468;28;20186;-95
2023/12/04 06:39:14;;;;;;;2.03;1.83;;;2.00;99.90;;;;;;5036257;28;20194;-94
2023/12/04 06:41:40;;;;;;;1.50;0.80;;;1.90;99.90;;;;;;5036050;28;20212;-93
2023/12/04 06:44:07;;;;;;;0.70;0.70;;;2.00;99.90;;;;;;5019386;28;20233;-94
2023/12/04 06:46:40;;;;;;;0.80;0.77;;;2.00;99.90;;;;;;5036712;28;20177;-94
2023/12/04 06:49:09;;;;;;;2.10;2.00;;;2.00;99.90;;;;;;5037201;28;20202;-93
2023/12/04 06:51:34;;;;;;;0.87;0.87;;;2.00;99.90;;;;;;5019638;28;20186;-93
2023/12/04 06:54:00;;;;;;;1.13;1.13;;;1.90;99.90;;;;;;5036249;28;20332;-93
2023/12/04 06:56:26;;;;;;;6.47;5.87;;;2.00;99.90;;;;;;5020096;28;20621;-93
2023/12/04 06:58:52;;;;;;;1.20;1.13;;;2.00;99.90;;;;;;5035878;28;20522;-92
2023/12/04 07:01:18;;;;;;;1.03;1.03;;;2.00;99.90;;;;;;5035756;28;20179;-93
2023/12/04 07:03:43;;;;;;;2.90;2.70;;;2.00;99.90;;;;;;5035568;28;20225;-94
2023/12/04 07:06:10;;;;;;;0.93;0.93;;;2.10;99.90;;;;;;5035398;28;20268;-92
2023/12/04 07:08:37;;;;;;;2.17;1.77;;;2.00;99.90;;;;;;5035539;28;20210;-93
2023/12/04 07:11:04;;;;;;;1.50;1.27;;;2.10;99.90;;;;;;5035943;28;20179;-89
2023/12/04 07:13:30;;;;;;;2.13;2.03;;;2.00;99.90;;;;;;5019477;28;20175;-92
2023/12/04 07:15:59;;;;;;;0.30;0.30;;;2.10;99.90;;;;;;5035452;28;20198;-92
2023/12/04 07:18:28;;;;;;;0.90;0.63;;;2.10;99.90;;;;;;5036571;28;20197;-93
2023/12/04 07:20:56;;;;;;;0.77;0.77;;;2.00;99.90;;;;;;5020003;28;20175;-93
2023/12/04 07:23:24;;;;;;;0.67;0.67;;;2.10;99.90;;;;;;5019249;28;20232;-90
2023/12/04 07:25:52;;;;;;;1.80;1.50;;;2.10;99.90;;;;;;5035209;28;20174;-91
2023/12/04 07:28:19;;;;;;;1.43;1.33;;;2.10;99.90;;;;;;5034608;28;20240;-92
2023/12/04 07:30:45;;;;;;;0.53;0.53;;;2.10;99.90;;;;;;5035127;28;20183;-93
2023/12/04 07:33:13;;;;;;;1.60;1.50;;;2.20;99.90;;;;;;5036224;28;20245;-92
2023/12/04 07:35:41;;;;;;;0.60;0.60;;;2.10;99.90;;;;;;5034923;28;20237;-93
2023/12/04 07:38:07;;;;;;;3.17;1.90;;;2.10;99.90;;;;;;5034643;28;20232;-92
2023/12/04 07:40:33;;;;;;;2.50;2.40;;;2.20;99.90;;;;;;5035085;28;20258;-93
2023/12/04 07:42:59;;;;;;;1.37;1.27;;;2.10;99.90;;;;;;5034806;28;20174;-92
2023/12/04 07:45:26;;;;;;;2.13;2.03;;;2.10;99.90;;;;;;5034934;28;20178;-92
2023/12/04 07:47:52;;;;;;;5.33;2.80;;;2.10;99.90;;;;;;5036637;28;20177;-93
2023/12/04 07:50:20;;;;;;;1.50;1.50;;;2.20;99.90;;;;;;5034935;28;20663;-92
2023/12/04 07:52:46;;;;;;;2.30;2.20;;;2.20;99.90;;;;;;5035373;28;20195;-90
2023/12/04 07:55:12;;;;;;;4.77;2.20;;;2.10;99.90;;;;;;5035107;28;20186;-90
2023/12/04 07:57:38;;;;;;;1.90;1.17;;;2.20;99.90;;;;;;5034561;28;20241;-92
2023/12/04 08:00:07;;;;;;;0.53;0.53;;;2.10;99.90;;;;;;5034797;28;20191;-93
2023/12/04 08:02:33;;;;;;;0.40;0.40;;;2.10;99.90;;;;;;5035175;28;20186;-93
2023/12/04 08:05:04;;;;;;;1.70;1.60;;;2.10;99.90;;;;;;5035900;28;20241;-94
2023/12/04 08:07:30;;;;;;;0.87;0.73;;;2.20;99.90;;;;;;5036173;28;20545;-89
2023/12/04 08:09:59;;;;;;;0.90;0.90;;;2.20;99.90;;;;;;5036204;28;20290;-90
2023/12/04 08:12:29;;;;;;;2.07;1.47;;;2.10;99.90;;;;;;5035657;28;20167;-90
2023/12/04 08:14:55;;;;;;;3.83;3.50;;;2.20;99.90;;;;;;5016584;28;20625;-90
2023/12/04 08:17:23;;;;;;;3.47;1.57;;;2.20;99.90;;;;;;5017288;28;20322;-90
2023/12/04 08:19:49;;;;;;;0.67;0.60;;;2.10;99.90;;;;;;5017296;28;20179;-90
2023/12/04 08:22:14;;;;;;;0.93;0.93;;;2.20;99.90;;;;;;5017310;28;20183;-90
2023/12/04 08:24:40;;;;;;;2.00;1.00;;;2.20;99.90;;;;;;5017913;28;20227;-90
2023/12/04 08:27:24;;;;;;;1.77;1.43;;;2.20;99.90;;;;;;5019351;28;20584;-90
2023/12/04 08:29:53;;;;;;;0.40;0.40;;;2.20;99.90;;;;;;5017401;28;20211;-89
2023/12/04 08:32:21;;;;;;;1.07;1.03;;;2.20;99.90;;;;;;5017148;28;20170;-91
2023/12/04 08:34:46;;;;;;;5.27;4.90;;;2.20;99.90;;;;;;5017531;28;20182;-92
2023/12/04 08:37:15;;;;;;;1.77;1.67;;;2.20;99.90;;;;;;5001154;28;20209;-91
2023/12/04 08:39:41;;;;;;;2.57;2.47;;;2.30;99.90;;;;;;5016543;28;20190;-92
2023/12/04 08:42:14;;;;;;;2.60;2.50;;;2.30;99.90;;;;;;5016487;28;20561;-92
2023/12/04 08:44:42;;;;;;;0.60;0.60;;;2.30;99.90;;;;;;5017498;28;20216;-91
2023/12/04 08:47:08;;;;;;;3.73;3.37;;;2.30;99.90;;;;;;5017478;28;20175;-90
2023/12/04 08:49:34;;;;;;;0.70;0.70;;;2.30;99.90;;;;;;5000691;28;20207;-90
2023/12/04 08:52:00;;;;;;;0.67;0.67;;;2.30;99.90;;;;;;5016921;28;20186;-90
2023/12/04 08:54:26;;;;;;;1.50;1.50;;;2.30;99.90;;;;;;5016882;28;20279;-89
2023/12/04 08:56:51;;;;;;;1.67;1.60;;;2.30;99.90;;;;;;5016716;28;20179;-91
2023/12/04 08:59:17;;;;;;;0.90;0.90;;;2.30;99.90;;;;;;5017025;28;20198;-92
2023/12/04 09:01:43;;;;;;;2.67;2.53;;;2.30;99.90;;;;;;5017573;28;20209;-91
2023/12/04 09:04:12;;;;;;;2.07;1.97;;;2.40;99.90;;;;;;5015247;28;20518;-92
2023/12/04 09:06:40;;;;;;;2.03;1.93;;;2.40;99.90;;;;;;5014462;28;20227;-92
2023/12/04 09:09:08;;;;;;;2.73;2.63;;;2.40;99.90;;;;;;5013374;28;20578;-89
2023/12/04 09:11:34;;;;;;;2.33;1.70;;;2.50;99.90;;;;;;4997025;28;20187;-91
2023/12/04 09:14:00;;;;;;;1.03;1.03;;;2.40;99.90;;;;;;5013069;28;20674;-92
2023/12/04 09:16:28;;;;;;;3.57;3.33;;;2.50;99.90;;;;;;4997617;28;20183;-91
2023/12/04 09:19:03;;;;;;;2.37;2.23;;;2.50;99.90;;;;;;4997195;28;20192;-91
2023/12/04 09:21:29;;;;;;;4.47;1.90;;;2.60;99.90;;;;;;4997042;28;20221;-89
2023/12/04 09:23:55;;;;;;;1.43;1.43;;;2.60;99.90;;;;;;4997672;28;20179;-91
2023/12/04 09:26:21;;;;;;;0.50;0.50;;;2.70;99.90;;;;;;4996610;28;20270;-88
2023/12/04 09:28:47;;;;;;;1.67;1.53;;;2.70;99.90;;;;;;4995583;28;20221;-88
2023/12/04 09:31:13;;;;;;;1.17;1.17;;;2.80;99.90;;;;;;4979538;28;20265;-87
2023/12/04 09:33:39;;;;;;;2.20;1.37;;;2.70;99.90;;;;;;5012530;28;20187;-87
2023/12/04 09:36:04;;;;;;;2.77;1.53;;;2.80;99.90;;;;;;4996633;28;20635;-87
2023/12/04 09:38:30;;;;;;;1.53;1.27;;;2.80;99.90;;;;;;4995442;28;20188;-87
2023/12/04 09:40:59;;;;;;;1.63;1.53;;;2.80;99.90;;;;;;4980067;28;20183;-88
2023/12/04 09:43:26;;;;;;;0.57;0.57;;;2.80;99.90;;;;;;5012139;28;20179;-88
2023/12/04 09:45:53;;;;;;;0.57;0.57;;;2.70;99.90;;;;;;4979702;28;20229;-87
2023/12/04 09:48:19;;;;;;;0.90;0.90;;;2.80;99.90;;;;;;4995258;28;20298;-87
2023/12/04 09:50:47;;;;;;;2.33;2.13;;;2.70;99.90;;;;;;4979230;28;20180;-87
2023/12/04 09:53:13;;;;;;;1.70;1.70;;;2.70;99.90;;;;;;4995406;28;20179;-87
2023/12/04 09:55:40;;;;;;;1.17;1.17;;;2.70;99.90;;;;;;4995530;28;20210;-86
2023/12/04 09:58:06;;;;;;;1.20;1.07;;;2.70;99.90;;;;;;4995547;28;20188;-88
2023/12/04 10:00:32;;;;;;;1.50;1.40;;;2.70;99.90;;;;;;4995287;28;20246;-86
2023/12/04 10:02:59;;;;;;;2.40;2.30;;;2.70;99.90;;;;;;4995955;28;20179;-89
2023/12/04 10:05:25;;;;;;;1.60;0.87;;;2.70;99.90;;;;;;4995085;28;20354;-89
2023/12/04 10:07:51;;;;;;;3.00;1.63;;;2.70;99.90;;;;;;4995428;28;20223;-88
2023/12/04 10:10:18;;;;;;;0.40;0.40;;;2.70;99.90;;;;;;4979517;28;20606;-88
2023/12/04 10:12:44;;;;;;;0.97;0.97;;;2.80;99.90;;;;;;4995348;28;20270;-88
2023/12/04 10:15:11;;;;;;;0.97;0.90;;;2.70;99.90;;;;;;5011861;28;20198;-88
2023/12/04 10:17:40;;;;;;;1.03;1.03;;;2.80;99.90;;;;;;4995647;28;20555;-88
2023/12/04 10:20:12;;;;;;;1.07;1.07;;;2.80;99.90;;;;;;4995394;28;20690;-88
2023/12/04 10:22:39;;;;;;;2.47;1.33;;;2.80;99.90;;;;;;4995163;28;20183;-89
2023/12/04 10:25:15;;;;;;;3.00;1.57;;;2.80;99.90;;;;;;4995052;28;20191;-90
2023/12/04 10:27:41;;;;;;;3.30;1.03;;;2.80;99.90;;;;;;4995552;28;20175;-88
2023/12/04 10:30:08;;;;;;;0.40;0.40;;;2.80;99.90;;;;;;4994903;28;20617;-88
2023/12/04 10:32:39;;;;;;;1.50;1.40;;;2.80;99.90;;;;;;4995086;28;20271;-88
2023/12/04 10:35:09;;;;;;;1.90;1.80;;;2.80;99.90;;;;;;4994831;28;20181;-88
2023/12/04 10:37:37;;;;;;;0.73;0.73;;;2.90;99.90;;;;;;4995253;28;20214;-88
2023/12/04 10:40:03;;;;;;;2.47;1.70;;;2.80;99.90;;;;;;4995008;28;20184;-87
2023/12/04 10:42:30;;;;;;;2.00;1.90;;;2.90;99.90;;;;;;4994932;28;20640;-87
2023/12/04 10:44:59;;;;;;;1.97;0.80;;;2.90;99.90;;;;;;5012689;28;20365;-89
2023/12/04 10:47:27;;;;;;;2.93;1.40;;;2.90;99.90;;;;;;4995736;28;20182;-88
2023/12/04 10:49:53;;;;;;;1.43;1.37;;;3.00;99.90;;;;;;4995413;28;20211;-88
2023/12/04 10:52:19;;;;;;;1.03;1.03;;;3.00;99.90;;;;;;5012879;28;20184;-88
2023/12/04 10:54:46;;;;;;;4.73;1.90;;;3.00;99.90;;;;;;4995430;28;20261;-89
2023/12/04 10:57:16;;;;;;;3.73;1.10;;;3.00;99.90;;;;;;4994680;28;20179;-89
2023/12/04 10:59:43;;;;;;;1.33;1.33;;;3.00;99.90;;;;;;5011515;28;20184;-90
2023/12/04 11:02:19;;;;;;;1.77;1.57;;;3.10;99.90;;;;;;4995146;28;20572;-89
2023/12/04 11:04:50;;;;;;;0.57;0.57;;;3.10;99.90;;;;;;4996928;28;20230;-89
2023/12/04 11:07:19;;;;;;;0.77;0.77;;;3.10;99.90;;;;;;4998787;28;20298;-89
2023/12/04 11:09:48;;;;;;;0.77;0.77;;;3.00;99.90;;;;;;4998493;28;20215;-88
2023/12/04 11:12:21;;;;;;;1.13;1.13;;;3.00;99.90;;;;;;5015860;28;20184;-88
2023/12/04 11:14:53;;;;;;;1.23;1.07;;;3.00;99.90;;;;;;4999265;28;20179;-86
2023/12/04 11:17:26;;;;;;;0.43;0.43;;;3.00;99.90;;;;;;4998788;28;20167;-86
2023/12/04 11:20:18;;;;;;;1.03;1.00;;;3.00;99.90;;;;;;4998716;28;20199;-87
2023/12/04 11:22:47;;;;;;;0.80;0.80;;;3.00;99.90;;;;;;5012594;28;20195;-86
2023/12/04 11:25:14;;;;;;;1.37;1.27;;;3.00;99.90;;;;;;4998459;28;20668;-88
2023/12/04 11:27:41;;;;;;;2.03;1.87;;;3.00;99.90;;;;;;4999235;28;20266;-88
2023/12/04 11:30:08;;;;;;;0.70;0.70;;;2.90;99.90;;;;;;4998366;28;20219;-87
2023/12/04 11:32:48;;;;;;;4.77;1.87;;;2.90;99.90;;;;;;4998212;28;20187;-88
2023/12/04 11:35:18;;;;;;;3.17;1.23;;;3.00;99.90;;;;;;5015966;28;20163;-88
2023/12/04 11:37:47;;;;;;;2.23;1.70;;;3.10;99.90;;;;;;5014781;28;20171;-87
2023/12/04 11:40:15;;;;;;;1.57;1.10;;;3.20;99.90;;;;;;4998417;28;20188;-89
2023/12/04 11:42:42;;;;;;;2.40;1.67;;;3.20;99.90;;;;;;4998159;28;20182;-87
2023/12/04 11:45:08;;;;;;;2.13;1.40;;;3.10;99.90;;;;;;4998136;28;20696;-88
2023/12/04 11:47:56;;;;;;;1.23;1.23;;;3.20;99.90;;;;;;4998006;28;20241;-88
2023/12/04 11:50:24;;;;;;;1.00;1.00;;;3.10;99.90;;;;;;5015842;28;20210;-87
2023/12/04 11:52:51;;;;;;;0.30;0.30;;;3.10;99.90;;;;;;4997910;28;20179;-87
2023/12/04 11:55:25;;;;;;;0.47;0.47;;;3.10;99.90;;;;;;4997775;28;20656;-87
2023/12/04 11:57:54;;;;;;;1.57;1.47;;;3.10;99.90;;;;;;4998648;28;20233;-88
2023/12/04 12:00:21;;;;;;;4.63;2.80;;;3.00;99.90;;;;;;5015064;28;20194;-87
2023/12/04 12:02:51;;;;;;;2.27;1.13;;;3.00;99.90;;;;;;5014212;28;20191;-88
2023/12/04 12:05:17;;;;;;;1.23;1.23;;;3.00;99.90;;;;;;4997873;28;20319;-89
2023/12/04 12:07:44;;;;;;;1.30;1.13;;;3.00;99.90;;;;;;5014366;28;20203;-89
2023/12/04 12:10:11;;;;;;;1.00;1.00;;;3.00;99.90;;;;;;4997855;28;20211;-87
2023/12/04 12:12:37;;;;;;;1.37;1.33;;;2.90;99.90;;;;;;4997916;28;20180;-88
2023/12/04 12:15:04;;;;;;;0.60;0.60;;;2.90;99.90;;;;;;4997368;28;20310;-88
2023/12/04 12:17:30;;;;;;;3.53;1.47;;;2.90;99.90;;;;;;4981413;28;20644;-88
2023/12/04 12:19:59;;;;;;;1.17;1.17;;;2.90;99.90;;;;;;4998028;28;20183;-87
2023/12/04 12:22:25;;;;;;;0.70;0.70;;;2.90;99.90;;;;;;4982356;28;20536;-89
2023/12/04 12:24:51;;;;;;;1.43;1.40;;;2.90;99.90;;;;;;4997645;28;20179;-89
2023/12/04 12:27:17;;;;;;;1.13;1.13;;;2.90;99.90;;;;;;4997739;28;20206;-88
2023/12/04 12:29:43;;;;;;;0.73;0.73;;;2.90;99.90;;;;;;5014359;28;20594;-87
2023/12/04 12:32:08;;;;;;;0.97;0.97;;;2.90;99.90;;;;;;4997857;28;20282;-87
2023/12/04 12:34:35;;;;;;;2.10;0.67;;;2.90;99.90;;;;;;4980749;28;20658;-86
2023/12/04 12:37:03;;;;;;;2.17;1.43;;;2.80;99.90;;;;;;5015027;28;20627;-85
2023/12/04 12:39:30;;;;;;;0.90;0.90;;;2.90;99.90;;;;;;5014662;28;20191;-85
2023/12/04 12:41:55;;;;;;;2.07;2.00;;;2.90;99.90;;;;;;4996882;28;20608;-86
2023/12/04 12:44:21;;;;;;;0.57;0.57;;;2.90;99.90;;;;;;4997247;28;20183;-86
2023/12/04 12:46:49;;;;;;;2.33;2.20;;;2.90;99.90;;;;;;4996516;28;20297;-85
2023/12/04 12:49:23;;;;;;;2.87;0.97;;;2.90;99.90;;;;;;4996311;28;20211;-86
2023/12/04 12:51:48;;;;;;;0.93;0.93;;;2.80;99.90;;;;;;5013739;28;20234;-85
2023/12/04 12:54:14;;;;;;;0.37;0.37;;;2.80;99.90;;;;;;4996167;28;20179;-85
2023/12/04 12:56:40;;;;;;;0.30;0.30;;;2.90;99.90;;;;;;4980953;28;20229;-85
2023/12/04 12:59:06;;;;;;;3.07;1.20;;;2.90;99.90;;;;;;5013000;28;20183;-86